﻿<?xml version="1.0" encoding="UTF-8" standalone="no"?>
<gpx xmlns="http://www.topografix.com/GPX/1/1" xmlns:gpxtpx="http://www.garmin.com/xmlschemas/TrackPointExtension/v1" xmlns:xsi="http://www.w3.org/2001/XMLSchema-instance" creator="Hribi.net" version="1.1" xsi:schemaLocation="http://www.topografix.com/GPX/1/1 http://www.topografix.com/GPX/1/1/gpx.xsd http://www.garmin.com/xmlschemas/TrackPointExtension/v1 http://www.garmin.com/xmlschemas/TrackPointExtensionv1.xsd">
  <metadata>
    <name>GPS sled</name>
    <desc>www.hribi.net</desc>
    <author>
      <name>hribi.net</name>
    </author>
    <link href="http://www.hribi.net">
      <text>Hribi.net</text>
    </link>
  </metadata>
  <trk>
    <trkseg>
      <trkpt lat="46.3479374" lon="13.5051051">
        <ele>1204.47</ele>
        <time>2021-10-23T05:41:34Z</time>
      </trkpt>
      <trkpt lat="46.3481034" lon="13.5052116">
        <ele>1205.11</ele>
        <time>2021-10-23T05:42:00Z</time>
      </trkpt>
      <trkpt lat="46.3482838" lon="13.5052511">
        <ele>1199.30</ele>
        <time>2021-10-23T05:43:42Z</time>
      </trkpt>
      <trkpt lat="46.3484676" lon="13.5052880">
        <ele>1201.84</ele>
        <time>2021-10-23T05:44:06Z</time>
      </trkpt>
      <trkpt lat="46.3486324" lon="13.5051734">
        <ele>1202.35</ele>
        <time>2021-10-23T05:44:22Z</time>
      </trkpt>
      <trkpt lat="46.3488073" lon="13.5051030">
        <ele>1204.11</ele>
        <time>2021-10-23T05:44:41Z</time>
      </trkpt>
      <trkpt lat="46.3490021" lon="13.5050581">
        <ele>1201.32</ele>
        <time>2021-10-23T05:44:58Z</time>
      </trkpt>
      <trkpt lat="46.3491721" lon="13.5049383">
        <ele>1203.04</ele>
        <time>2021-10-23T05:45:15Z</time>
      </trkpt>
      <trkpt lat="46.3493215" lon="13.5047764">
        <ele>1195.59</ele>
        <time>2021-10-23T05:45:31Z</time>
      </trkpt>
      <trkpt lat="46.3494771" lon="13.5046356">
        <ele>1193.46</ele>
        <time>2021-10-23T05:45:45Z</time>
      </trkpt>
      <trkpt lat="46.3496359" lon="13.5044951">
        <ele>1192.61</ele>
        <time>2021-10-23T05:46:01Z</time>
      </trkpt>
      <trkpt lat="46.3498205" lon="13.5043945">
        <ele>1193.08</ele>
        <time>2021-10-23T05:46:18Z</time>
      </trkpt>
      <trkpt lat="46.3500019" lon="13.5044375">
        <ele>1200.32</ele>
        <time>2021-10-23T05:46:36Z</time>
      </trkpt>
      <trkpt lat="46.3501884" lon="13.5044580">
        <ele>1197.55</ele>
        <time>2021-10-23T05:46:56Z</time>
      </trkpt>
      <trkpt lat="46.3503652" lon="13.5043794">
        <ele>1199.77</ele>
        <time>2021-10-23T05:47:14Z</time>
      </trkpt>
      <trkpt lat="46.3505525" lon="13.5043640">
        <ele>1198.31</ele>
        <time>2021-10-23T05:47:33Z</time>
      </trkpt>
      <trkpt lat="46.3507371" lon="13.5043134">
        <ele>1183.35</ele>
        <time>2021-10-23T05:47:53Z</time>
      </trkpt>
      <trkpt lat="46.3509200" lon="13.5043476">
        <ele>1203.35</ele>
        <time>2021-10-23T05:48:11Z</time>
      </trkpt>
      <trkpt lat="46.3510840" lon="13.5044857">
        <ele>1210.33</ele>
        <time>2021-10-23T05:48:28Z</time>
      </trkpt>
      <trkpt lat="46.3509277" lon="13.5043557">
        <ele>1239.46</ele>
        <time>2021-10-23T05:49:00Z</time>
      </trkpt>
      <trkpt lat="46.3507635" lon="13.5042459">
        <ele>1239.62</ele>
        <time>2021-10-23T05:49:19Z</time>
      </trkpt>
      <trkpt lat="46.3509402" lon="13.5041947">
        <ele>1233.36</ele>
        <time>2021-10-23T05:49:31Z</time>
      </trkpt>
      <trkpt lat="46.3511255" lon="13.5042126">
        <ele>1229.14</ele>
        <time>2021-10-23T05:49:48Z</time>
      </trkpt>
      <trkpt lat="46.3513129" lon="13.5042572">
        <ele>1236.86</ele>
        <time>2021-10-23T05:50:07Z</time>
      </trkpt>
      <trkpt lat="46.3514976" lon="13.5043086">
        <ele>1234.07</ele>
        <time>2021-10-23T05:50:26Z</time>
      </trkpt>
      <trkpt lat="46.3516767" lon="13.5043571">
        <ele>1233.18</ele>
        <time>2021-10-23T05:50:45Z</time>
      </trkpt>
      <trkpt lat="46.3517562" lon="13.5046122">
        <ele>1237.92</ele>
        <time>2021-10-23T05:51:02Z</time>
      </trkpt>
      <trkpt lat="46.3518760" lon="13.5048074">
        <ele>1245.01</ele>
        <time>2021-10-23T05:51:19Z</time>
      </trkpt>
      <trkpt lat="46.3520387" lon="13.5049200">
        <ele>1242.50</ele>
        <time>2021-10-23T05:51:37Z</time>
      </trkpt>
      <trkpt lat="46.3522078" lon="13.5050321">
        <ele>1240.63</ele>
        <time>2021-10-23T05:51:55Z</time>
      </trkpt>
      <trkpt lat="46.3522377" lon="13.5052888">
        <ele>1244.13</ele>
        <time>2021-10-23T05:52:10Z</time>
      </trkpt>
      <trkpt lat="46.3522826" lon="13.5055408">
        <ele>1249.61</ele>
        <time>2021-10-23T05:52:25Z</time>
      </trkpt>
      <trkpt lat="46.3524508" lon="13.5056616">
        <ele>1249.61</ele>
        <time>2021-10-23T05:52:41Z</time>
      </trkpt>
      <trkpt lat="46.3525582" lon="13.5058748">
        <ele>1249.50</ele>
        <time>2021-10-23T05:52:59Z</time>
      </trkpt>
      <trkpt lat="46.3526706" lon="13.5060877">
        <ele>1245.53</ele>
        <time>2021-10-23T05:53:15Z</time>
      </trkpt>
      <trkpt lat="46.3527521" lon="13.5063295">
        <ele>1242.58</ele>
        <time>2021-10-23T05:53:30Z</time>
      </trkpt>
      <trkpt lat="46.3527523" lon="13.5065906">
        <ele>1243.27</ele>
        <time>2021-10-23T05:53:42Z</time>
      </trkpt>
      <trkpt lat="46.3526940" lon="13.5068456">
        <ele>1252.23</ele>
        <time>2021-10-23T05:53:56Z</time>
      </trkpt>
      <trkpt lat="46.3527244" lon="13.5071028">
        <ele>1256.78</ele>
        <time>2021-10-23T05:54:11Z</time>
      </trkpt>
      <trkpt lat="46.3528187" lon="13.5073314">
        <ele>1265.23</ele>
        <time>2021-10-23T05:54:26Z</time>
      </trkpt>
      <trkpt lat="46.3527550" lon="13.5075833">
        <ele>1272.50</ele>
        <time>2021-10-23T05:54:39Z</time>
      </trkpt>
      <trkpt lat="46.3526858" lon="13.5078527">
        <ele>1280.35</ele>
        <time>2021-10-23T05:55:23Z</time>
      </trkpt>
      <trkpt lat="46.3526815" lon="13.5081233">
        <ele>1275.85</ele>
        <time>2021-10-23T05:55:48Z</time>
      </trkpt>
      <trkpt lat="46.3528604" lon="13.5082582">
        <ele>1268.60</ele>
        <time>2021-10-23T05:57:02Z</time>
      </trkpt>
      <trkpt lat="46.3531933" lon="13.5082537">
        <ele>1276.24</ele>
        <time>2021-10-23T05:58:31Z</time>
      </trkpt>
      <trkpt lat="46.3533534" lon="13.5081161">
        <ele>1283.12</ele>
        <time>2021-10-23T05:58:52Z</time>
      </trkpt>
      <trkpt lat="46.3535448" lon="13.5081010">
        <ele>1283.58</ele>
        <time>2021-10-23T05:59:16Z</time>
      </trkpt>
      <trkpt lat="46.3537486" lon="13.5081255">
        <ele>1286.57</ele>
        <time>2021-10-23T05:59:49Z</time>
      </trkpt>
      <trkpt lat="46.3537969" lon="13.5083814">
        <ele>1305.15</ele>
        <time>2021-10-23T06:00:34Z</time>
      </trkpt>
      <trkpt lat="46.3539795" lon="13.5083740">
        <ele>1312.55</ele>
        <time>2021-10-23T06:01:17Z</time>
      </trkpt>
      <trkpt lat="46.3541759" lon="13.5082893">
        <ele>1328.27</ele>
        <time>2021-10-23T06:02:20Z</time>
      </trkpt>
      <trkpt lat="46.3543459" lon="13.5084028">
        <ele>1329.76</ele>
        <time>2021-10-23T06:02:45Z</time>
      </trkpt>
      <trkpt lat="46.3545134" lon="13.5082806">
        <ele>1325.25</ele>
        <time>2021-10-23T06:03:04Z</time>
      </trkpt>
      <trkpt lat="46.3546932" lon="13.5082399">
        <ele>1312.87</ele>
        <time>2021-10-23T06:03:38Z</time>
      </trkpt>
      <trkpt lat="46.3549217" lon="13.5080492">
        <ele>1344.57</ele>
        <time>2021-10-23T06:06:13Z</time>
      </trkpt>
      <trkpt lat="46.3551122" lon="13.5080025">
        <ele>1350.21</ele>
        <time>2021-10-23T06:06:35Z</time>
      </trkpt>
      <trkpt lat="46.3552826" lon="13.5078905">
        <ele>1375.87</ele>
        <time>2021-10-23T06:07:54Z</time>
      </trkpt>
      <trkpt lat="46.3554694" lon="13.5078682">
        <ele>1375.78</ele>
        <time>2021-10-23T06:08:32Z</time>
      </trkpt>
      <trkpt lat="46.3556362" lon="13.5077395">
        <ele>1389.97</ele>
        <time>2021-10-23T06:09:36Z</time>
      </trkpt>
      <trkpt lat="46.3558105" lon="13.5076460">
        <ele>1384.49</ele>
        <time>2021-10-23T06:09:59Z</time>
      </trkpt>
      <trkpt lat="46.3560137" lon="13.5078534">
        <ele>1411.58</ele>
        <time>2021-10-23T06:11:14Z</time>
      </trkpt>
      <trkpt lat="46.3561984" lon="13.5078730">
        <ele>1413.95</ele>
        <time>2021-10-23T06:11:43Z</time>
      </trkpt>
      <trkpt lat="46.3563785" lon="13.5078395">
        <ele>1408.97</ele>
        <time>2021-10-23T06:12:05Z</time>
      </trkpt>
      <trkpt lat="46.3565676" lon="13.5078078">
        <ele>1411.40</ele>
        <time>2021-10-23T06:12:36Z</time>
      </trkpt>
      <trkpt lat="46.3567338" lon="13.5077071">
        <ele>1411.28</ele>
        <time>2021-10-23T06:12:51Z</time>
      </trkpt>
      <trkpt lat="46.3568948" lon="13.5078269">
        <ele>1417.59</ele>
        <time>2021-10-23T06:14:04Z</time>
      </trkpt>
      <trkpt lat="46.3569809" lon="13.5080584">
        <ele>1423.66</ele>
        <time>2021-10-23T06:15:23Z</time>
      </trkpt>
      <trkpt lat="46.3568339" lon="13.5082146">
        <ele>1425.00</ele>
        <time>2021-10-23T06:15:41Z</time>
      </trkpt>
      <trkpt lat="46.3566490" lon="13.5082100">
        <ele>1429.56</ele>
        <time>2021-10-23T06:15:53Z</time>
      </trkpt>
      <trkpt lat="46.3565304" lon="13.5084099">
        <ele>1442.69</ele>
        <time>2021-10-23T06:16:21Z</time>
      </trkpt>
      <trkpt lat="46.3565721" lon="13.5086833">
        <ele>1445.13</ele>
        <time>2021-10-23T06:16:51Z</time>
      </trkpt>
      <trkpt lat="46.3564451" lon="13.5088885">
        <ele>1439.99</ele>
        <time>2021-10-23T06:17:07Z</time>
      </trkpt>
      <trkpt lat="46.3563813" lon="13.5091388">
        <ele>1435.28</ele>
        <time>2021-10-23T06:17:31Z</time>
      </trkpt>
      <trkpt lat="46.3563584" lon="13.5094028">
        <ele>1439.07</ele>
        <time>2021-10-23T06:17:51Z</time>
      </trkpt>
      <trkpt lat="46.3563163" lon="13.5096633">
        <ele>1444.64</ele>
        <time>2021-10-23T06:18:10Z</time>
      </trkpt>
      <trkpt lat="46.3561309" lon="13.5099862">
        <ele>1445.84</ele>
        <time>2021-10-23T06:21:05Z</time>
      </trkpt>
      <trkpt lat="46.3559908" lon="13.5102573">
        <ele>1456.71</ele>
        <time>2021-10-23T06:21:10Z</time>
      </trkpt>
      <trkpt lat="46.3558424" lon="13.5104429">
        <ele>1454.84</ele>
        <time>2021-10-23T06:21:20Z</time>
      </trkpt>
      <trkpt lat="46.3557278" lon="13.5106510">
        <ele>1452.71</ele>
        <time>2021-10-23T06:21:33Z</time>
      </trkpt>
      <trkpt lat="46.3556550" lon="13.5109192">
        <ele>1454.62</ele>
        <time>2021-10-23T06:23:17Z</time>
      </trkpt>
      <trkpt lat="46.3554750" lon="13.5108948">
        <ele>1462.50</ele>
        <time>2021-10-23T06:24:37Z</time>
      </trkpt>
      <trkpt lat="46.3555982" lon="13.5110961">
        <ele>1462.82</ele>
        <time>2021-10-23T06:25:01Z</time>
      </trkpt>
      <trkpt lat="46.3554292" lon="13.5111897">
        <ele>1471.95</ele>
        <time>2021-10-23T06:25:23Z</time>
      </trkpt>
      <trkpt lat="46.3552719" lon="13.5110540">
        <ele>1478.69</ele>
        <time>2021-10-23T06:25:43Z</time>
      </trkpt>
      <trkpt lat="46.3550931" lon="13.5111093">
        <ele>1494.74</ele>
        <time>2021-10-23T06:26:38Z</time>
      </trkpt>
      <trkpt lat="46.3549185" lon="13.5112213">
        <ele>1496.94</ele>
        <time>2021-10-23T06:27:19Z</time>
      </trkpt>
      <trkpt lat="46.3548159" lon="13.5114360">
        <ele>1497.81</ele>
        <time>2021-10-23T06:27:42Z</time>
      </trkpt>
      <trkpt lat="46.3547568" lon="13.5116909">
        <ele>1498.67</ele>
        <time>2021-10-23T06:28:08Z</time>
      </trkpt>
      <trkpt lat="46.3547791" lon="13.5119500">
        <ele>1502.92</ele>
        <time>2021-10-23T06:28:35Z</time>
      </trkpt>
      <trkpt lat="46.3547980" lon="13.5122126">
        <ele>1499.56</ele>
        <time>2021-10-23T06:28:55Z</time>
      </trkpt>
      <trkpt lat="46.3547715" lon="13.5124704">
        <ele>1505.43</ele>
        <time>2021-10-23T06:29:23Z</time>
      </trkpt>
      <trkpt lat="46.3548849" lon="13.5126816">
        <ele>1505.19</ele>
        <time>2021-10-23T06:30:26Z</time>
      </trkpt>
      <trkpt lat="46.3549907" lon="13.5129030">
        <ele>1506.56</ele>
        <time>2021-10-23T06:31:12Z</time>
      </trkpt>
      <trkpt lat="46.3552415" lon="13.5129482">
        <ele>1522.21</ele>
        <time>2021-10-23T06:32:09Z</time>
      </trkpt>
      <trkpt lat="46.3554122" lon="13.5130544">
        <ele>1534.11</ele>
        <time>2021-10-23T06:32:54Z</time>
      </trkpt>
      <trkpt lat="46.3555892" lon="13.5132434">
        <ele>1530.33</ele>
        <time>2021-10-23T06:34:05Z</time>
      </trkpt>
      <trkpt lat="46.3557469" lon="13.5133744">
        <ele>1542.75</ele>
        <time>2021-10-23T06:34:32Z</time>
      </trkpt>
      <trkpt lat="46.3558829" lon="13.5135696">
        <ele>1558.29</ele>
        <time>2021-10-23T06:35:39Z</time>
      </trkpt>
      <trkpt lat="46.3560653" lon="13.5136026">
        <ele>1557.53</ele>
        <time>2021-10-23T06:36:50Z</time>
      </trkpt>
      <trkpt lat="46.3561699" lon="13.5138165">
        <ele>1561.34</ele>
        <time>2021-10-23T06:37:43Z</time>
      </trkpt>
      <trkpt lat="46.3561842" lon="13.5140856">
        <ele>1568.05</ele>
        <time>2021-10-23T06:38:07Z</time>
      </trkpt>
      <trkpt lat="46.3562933" lon="13.5143042">
        <ele>1574.62</ele>
        <time>2021-10-23T06:38:39Z</time>
      </trkpt>
      <trkpt lat="46.3564287" lon="13.5144797">
        <ele>1577.18</ele>
        <time>2021-10-23T06:39:10Z</time>
      </trkpt>
      <trkpt lat="46.3564731" lon="13.5147352">
        <ele>1582.01</ele>
        <time>2021-10-23T06:39:36Z</time>
      </trkpt>
      <trkpt lat="46.3565198" lon="13.5144826">
        <ele>1583.59</ele>
        <time>2021-10-23T06:40:19Z</time>
      </trkpt>
      <trkpt lat="46.3565476" lon="13.5142247">
        <ele>1589.22</ele>
        <time>2021-10-23T06:40:53Z</time>
      </trkpt>
      <trkpt lat="46.3565790" lon="13.5139575">
        <ele>1599.39</ele>
        <time>2021-10-23T06:41:24Z</time>
      </trkpt>
      <trkpt lat="46.3566903" lon="13.5137462">
        <ele>1597.37</ele>
        <time>2021-10-23T06:42:05Z</time>
      </trkpt>
      <trkpt lat="46.3566883" lon="13.5134846">
        <ele>1608.97</ele>
        <time>2021-10-23T06:42:33Z</time>
      </trkpt>
      <trkpt lat="46.3566613" lon="13.5132059">
        <ele>1618.56</ele>
        <time>2021-10-23T06:43:04Z</time>
      </trkpt>
      <trkpt lat="46.3568947" lon="13.5133777">
        <ele>1628.39</ele>
        <time>2021-10-23T06:45:05Z</time>
      </trkpt>
      <trkpt lat="46.3569456" lon="13.5131169">
        <ele>1635.39</ele>
        <time>2021-10-23T06:46:19Z</time>
      </trkpt>
      <trkpt lat="46.3570986" lon="13.5129745">
        <ele>1640.58</ele>
        <time>2021-10-23T06:47:39Z</time>
      </trkpt>
      <trkpt lat="46.3572234" lon="13.5131739">
        <ele>1648.72</ele>
        <time>2021-10-23T06:48:10Z</time>
      </trkpt>
      <trkpt lat="46.3573574" lon="13.5133615">
        <ele>1653.40</ele>
        <time>2021-10-23T06:48:59Z</time>
      </trkpt>
      <trkpt lat="46.3574499" lon="13.5135906">
        <ele>1660.47</ele>
        <time>2021-10-23T06:49:24Z</time>
      </trkpt>
      <trkpt lat="46.3575642" lon="13.5137922">
        <ele>1660.77</ele>
        <time>2021-10-23T06:50:00Z</time>
      </trkpt>
      <trkpt lat="46.3577411" lon="13.5138705">
        <ele>1658.53</ele>
        <time>2021-10-23T06:50:40Z</time>
      </trkpt>
      <trkpt lat="46.3578718" lon="13.5140518">
        <ele>1663.79</ele>
        <time>2021-10-23T06:51:15Z</time>
      </trkpt>
      <trkpt lat="46.3580082" lon="13.5142431">
        <ele>1670.25</ele>
        <time>2021-10-23T06:51:53Z</time>
      </trkpt>
      <trkpt lat="46.3579617" lon="13.5145056">
        <ele>1677.33</ele>
        <time>2021-10-23T06:52:29Z</time>
      </trkpt>
      <trkpt lat="46.3580131" lon="13.5147595">
        <ele>1679.27</ele>
        <time>2021-10-23T06:52:57Z</time>
      </trkpt>
      <trkpt lat="46.3580999" lon="13.5150022">
        <ele>1678.71</ele>
        <time>2021-10-23T06:55:32Z</time>
      </trkpt>
      <trkpt lat="46.3581129" lon="13.5147423">
        <ele>1689.45</ele>
        <time>2021-10-23T06:56:36Z</time>
      </trkpt>
      <trkpt lat="46.3581667" lon="13.5144878">
        <ele>1698.46</ele>
        <time>2021-10-23T06:57:02Z</time>
      </trkpt>
      <trkpt lat="46.3583201" lon="13.5146280">
        <ele>1704.50</ele>
        <time>2021-10-23T06:57:50Z</time>
      </trkpt>
      <trkpt lat="46.3583679" lon="13.5148793">
        <ele>1709.27</ele>
        <time>2021-10-23T06:58:11Z</time>
      </trkpt>
      <trkpt lat="46.3585087" lon="13.5150585">
        <ele>1703.27</ele>
        <time>2021-10-23T06:58:46Z</time>
      </trkpt>
      <trkpt lat="46.3586031" lon="13.5148201">
        <ele>1711.50</ele>
        <time>2021-10-23T06:59:33Z</time>
      </trkpt>
      <trkpt lat="46.3587442" lon="13.5146481">
        <ele>1713.00</ele>
        <time>2021-10-23T07:00:08Z</time>
      </trkpt>
      <trkpt lat="46.3587424" lon="13.5143804">
        <ele>1714.16</ele>
        <time>2021-10-23T07:00:46Z</time>
      </trkpt>
      <trkpt lat="46.3589366" lon="13.5146021">
        <ele>1737.53</ele>
        <time>2021-10-23T07:02:22Z</time>
      </trkpt>
      <trkpt lat="46.3588839" lon="13.5143477">
        <ele>1744.91</ele>
        <time>2021-10-23T07:02:44Z</time>
      </trkpt>
      <trkpt lat="46.3590552" lon="13.5144452">
        <ele>1749.28</ele>
        <time>2021-10-23T07:03:09Z</time>
      </trkpt>
      <trkpt lat="46.3591656" lon="13.5142381">
        <ele>1750.02</ele>
        <time>2021-10-23T07:03:48Z</time>
      </trkpt>
      <trkpt lat="46.3591996" lon="13.5139818">
        <ele>1770.96</ele>
        <time>2021-10-23T07:05:12Z</time>
      </trkpt>
      <trkpt lat="46.3593717" lon="13.5138985">
        <ele>1782.52</ele>
        <time>2021-10-23T07:06:10Z</time>
      </trkpt>
      <trkpt lat="46.3596137" lon="13.5139241">
        <ele>1790.84</ele>
        <time>2021-10-23T07:07:29Z</time>
      </trkpt>
      <trkpt lat="46.3597974" lon="13.5139304">
        <ele>1802.19</ele>
        <time>2021-10-23T07:08:02Z</time>
      </trkpt>
      <trkpt lat="46.3599780" lon="13.5138866">
        <ele>1807.36</ele>
        <time>2021-10-23T07:08:29Z</time>
      </trkpt>
      <trkpt lat="46.3601589" lon="13.5139493">
        <ele>1812.19</ele>
        <time>2021-10-23T07:08:53Z</time>
      </trkpt>
      <trkpt lat="46.3603355" lon="13.5138904">
        <ele>1820.18</ele>
        <time>2021-10-23T07:09:21Z</time>
      </trkpt>
      <trkpt lat="46.3605121" lon="13.5139466">
        <ele>1818.65</ele>
        <time>2021-10-23T07:09:55Z</time>
      </trkpt>
      <trkpt lat="46.3606531" lon="13.5137676">
        <ele>1811.53</ele>
        <time>2021-10-23T07:10:27Z</time>
      </trkpt>
      <trkpt lat="46.3608139" lon="13.5136480">
        <ele>1816.82</ele>
        <time>2021-10-23T07:11:03Z</time>
      </trkpt>
      <trkpt lat="46.3608360" lon="13.5139098">
        <ele>1829.49</ele>
        <time>2021-10-23T07:12:01Z</time>
      </trkpt>
      <trkpt lat="46.3607063" lon="13.5137173">
        <ele>1829.62</ele>
        <time>2021-10-23T07:12:52Z</time>
      </trkpt>
      <trkpt lat="46.3607871" lon="13.5134789">
        <ele>1835.02</ele>
        <time>2021-10-23T07:14:14Z</time>
      </trkpt>
      <trkpt lat="46.3609114" lon="13.5132435">
        <ele>1843.87</ele>
        <time>2021-10-23T07:16:07Z</time>
      </trkpt>
      <trkpt lat="46.3607750" lon="13.5130570">
        <ele>1858.31</ele>
        <time>2021-10-23T07:16:29Z</time>
      </trkpt>
      <trkpt lat="46.3609231" lon="13.5128930">
        <ele>1859.34</ele>
        <time>2021-10-23T07:17:14Z</time>
      </trkpt>
      <trkpt lat="46.3610638" lon="13.5127216">
        <ele>1866.82</ele>
        <time>2021-10-23T07:18:45Z</time>
      </trkpt>
      <trkpt lat="46.3612674" lon="13.5126452">
        <ele>1883.29</ele>
        <time>2021-10-23T07:20:39Z</time>
      </trkpt>
      <trkpt lat="46.3612926" lon="13.5123797">
        <ele>1886.33</ele>
        <time>2021-10-23T07:21:34Z</time>
      </trkpt>
      <trkpt lat="46.3613311" lon="13.5121209">
        <ele>1890.23</ele>
        <time>2021-10-23T07:22:11Z</time>
      </trkpt>
      <trkpt lat="46.3611450" lon="13.5122052">
        <ele>1908.08</ele>
        <time>2021-10-23T07:22:59Z</time>
      </trkpt>
      <trkpt lat="46.3612085" lon="13.5119606">
        <ele>1914.62</ele>
        <time>2021-10-23T07:25:25Z</time>
      </trkpt>
      <trkpt lat="46.3613790" lon="13.5118579">
        <ele>1921.61</ele>
        <time>2021-10-23T07:26:03Z</time>
      </trkpt>
      <trkpt lat="46.3615486" lon="13.5117458">
        <ele>1924.32</ele>
        <time>2021-10-23T07:26:29Z</time>
      </trkpt>
      <trkpt lat="46.3617305" lon="13.5115600">
        <ele>1929.87</ele>
        <time>2021-10-23T07:27:53Z</time>
      </trkpt>
      <trkpt lat="46.3616464" lon="13.5113294">
        <ele>1951.54</ele>
        <time>2021-10-23T07:29:20Z</time>
      </trkpt>
      <trkpt lat="46.3615513" lon="13.5110921">
        <ele>1963.85</ele>
        <time>2021-10-23T07:32:58Z</time>
      </trkpt>
      <trkpt lat="46.3613840" lon="13.5111982">
        <ele>1971.02</ele>
        <time>2021-10-23T07:34:27Z</time>
      </trkpt>
      <trkpt lat="46.3611717" lon="13.5111396">
        <ele>1983.50</ele>
        <time>2021-10-23T07:35:21Z</time>
      </trkpt>
      <trkpt lat="46.3609901" lon="13.5111402">
        <ele>1997.43</ele>
        <time>2021-10-23T07:36:04Z</time>
      </trkpt>
      <trkpt lat="46.3608077" lon="13.5110853">
        <ele>1993.72</ele>
        <time>2021-10-23T07:37:51Z</time>
      </trkpt>
      <trkpt lat="46.3606535" lon="13.5112269">
        <ele>1989.05</ele>
        <time>2021-10-23T07:38:54Z</time>
      </trkpt>
      <trkpt lat="46.3608234" lon="13.5111183">
        <ele>1995.78</ele>
        <time>2021-10-23T07:44:53Z</time>
      </trkpt>
      <trkpt lat="46.3610026" lon="13.5110661">
        <ele>1992.57</ele>
        <time>2021-10-23T07:45:16Z</time>
      </trkpt>
      <trkpt lat="46.3611942" lon="13.5110945">
        <ele>1985.24</ele>
        <time>2021-10-23T07:45:58Z</time>
      </trkpt>
      <trkpt lat="46.3613647" lon="13.5111775">
        <ele>1980.96</ele>
        <time>2021-10-23T07:46:41Z</time>
      </trkpt>
      <trkpt lat="46.3615542" lon="13.5111518">
        <ele>1964.31</ele>
        <time>2021-10-23T07:47:53Z</time>
      </trkpt>
      <trkpt lat="46.3617416" lon="13.5111837">
        <ele>1963.47</ele>
        <time>2021-10-23T07:48:47Z</time>
      </trkpt>
      <trkpt lat="46.3619241" lon="13.5112217">
        <ele>1958.38</ele>
        <time>2021-10-23T07:49:02Z</time>
      </trkpt>
      <trkpt lat="46.3621037" lon="13.5112921">
        <ele>1951.61</ele>
        <time>2021-10-23T07:49:20Z</time>
      </trkpt>
      <trkpt lat="46.3622461" lon="13.5115083">
        <ele>1947.26</ele>
        <time>2021-10-23T07:49:50Z</time>
      </trkpt>
      <trkpt lat="46.3623187" lon="13.5117506">
        <ele>1945.48</ele>
        <time>2021-10-23T07:50:30Z</time>
      </trkpt>
      <trkpt lat="46.3624889" lon="13.5118450">
        <ele>1948.74</ele>
        <time>2021-10-23T07:51:09Z</time>
      </trkpt>
      <trkpt lat="46.3626413" lon="13.5116923">
        <ele>1958.41</ele>
        <time>2021-10-23T07:52:12Z</time>
      </trkpt>
      <trkpt lat="46.3627921" lon="13.5115496">
        <ele>1964.98</ele>
        <time>2021-10-23T07:53:03Z</time>
      </trkpt>
      <trkpt lat="46.3629669" lon="13.5114754">
        <ele>1963.28</ele>
        <time>2021-10-23T07:53:48Z</time>
      </trkpt>
      <trkpt lat="46.3631518" lon="13.5114746">
        <ele>1991.75</ele>
        <time>2021-10-23T07:56:45Z</time>
      </trkpt>
      <trkpt lat="46.3633235" lon="13.5113540">
        <ele>1993.72</ele>
        <time>2021-10-23T07:57:20Z</time>
      </trkpt>
      <trkpt lat="46.3635058" lon="13.5114024">
        <ele>1995.98</ele>
        <time>2021-10-23T07:57:41Z</time>
      </trkpt>
      <trkpt lat="46.3636983" lon="13.5113418">
        <ele>2008.78</ele>
        <time>2021-10-23T07:59:17Z</time>
      </trkpt>
      <trkpt lat="46.3638190" lon="13.5111485">
        <ele>2022.09</ele>
        <time>2021-10-23T08:00:45Z</time>
      </trkpt>
      <trkpt lat="46.3639898" lon="13.5112627">
        <ele>2032.89</ele>
        <time>2021-10-23T08:01:53Z</time>
      </trkpt>
      <trkpt lat="46.3641378" lon="13.5111084">
        <ele>2040.18</ele>
        <time>2021-10-23T08:05:06Z</time>
      </trkpt>
      <trkpt lat="46.3643212" lon="13.5110005">
        <ele>2034.23</ele>
        <time>2021-10-23T08:05:32Z</time>
      </trkpt>
      <trkpt lat="46.3644836" lon="13.5111442">
        <ele>2029.11</ele>
        <time>2021-10-23T08:06:28Z</time>
      </trkpt>
      <trkpt lat="46.3646413" lon="13.5110054">
        <ele>2016.83</ele>
        <time>2021-10-23T08:07:12Z</time>
      </trkpt>
      <trkpt lat="46.3646452" lon="13.5112712">
        <ele>2016.87</ele>
        <time>2021-10-23T08:07:46Z</time>
      </trkpt>
      <trkpt lat="46.3648257" lon="13.5112161">
        <ele>2000.75</ele>
        <time>2021-10-23T08:10:05Z</time>
      </trkpt>
      <trkpt lat="46.3649884" lon="13.5111045">
        <ele>2002.83</ele>
        <time>2021-10-23T08:10:43Z</time>
      </trkpt>
      <trkpt lat="46.3650829" lon="13.5108776">
        <ele>1998.60</ele>
        <time>2021-10-23T08:11:16Z</time>
      </trkpt>
      <trkpt lat="46.3651649" lon="13.5106441">
        <ele>1996.83</ele>
        <time>2021-10-23T08:11:54Z</time>
      </trkpt>
      <trkpt lat="46.3652605" lon="13.5104125">
        <ele>1993.02</ele>
        <time>2021-10-23T08:12:24Z</time>
      </trkpt>
      <trkpt lat="46.3654363" lon="13.5103465">
        <ele>1998.42</ele>
        <time>2021-10-23T08:12:56Z</time>
      </trkpt>
      <trkpt lat="46.3656022" lon="13.5102438">
        <ele>2014.28</ele>
        <time>2021-10-23T08:15:23Z</time>
      </trkpt>
      <trkpt lat="46.3658064" lon="13.5102744">
        <ele>2008.97</ele>
        <time>2021-10-23T08:16:59Z</time>
      </trkpt>
      <trkpt lat="46.3660797" lon="13.5102703">
        <ele>2027.73</ele>
        <time>2021-10-23T08:18:21Z</time>
      </trkpt>
      <trkpt lat="46.3662072" lon="13.5100737">
        <ele>2035.80</ele>
        <time>2021-10-23T08:19:38Z</time>
      </trkpt>
      <trkpt lat="46.3663757" lon="13.5101911">
        <ele>2042.53</ele>
        <time>2021-10-23T08:19:57Z</time>
      </trkpt>
      <trkpt lat="46.3665409" lon="13.5100824">
        <ele>2047.68</ele>
        <time>2021-10-23T08:20:55Z</time>
      </trkpt>
      <trkpt lat="46.3665112" lon="13.5100209">
        <ele>2053.55</ele>
        <time>2021-10-23T08:23:02Z</time>
      </trkpt>
    </trkseg>
    <trkseg>
      <trkpt lat="46.3666288" lon="13.5098240">
        <ele>2044.65</ele>
        <time>2021-10-23T08:29:57Z</time>
      </trkpt>
      <trkpt lat="46.3668110" lon="13.5098521">
        <ele>2043.62</ele>
        <time>2021-10-23T08:30:17Z</time>
      </trkpt>
      <trkpt lat="46.3669856" lon="13.5099374">
        <ele>2043.67</ele>
        <time>2021-10-23T08:30:49Z</time>
      </trkpt>
      <trkpt lat="46.3671676" lon="13.5099442">
        <ele>2028.45</ele>
        <time>2021-10-23T08:31:45Z</time>
      </trkpt>
      <trkpt lat="46.3672288" lon="13.5101976">
        <ele>2027.11</ele>
        <time>2021-10-23T08:32:05Z</time>
      </trkpt>
      <trkpt lat="46.3674064" lon="13.5101557">
        <ele>2037.92</ele>
        <time>2021-10-23T08:32:41Z</time>
      </trkpt>
      <trkpt lat="46.3675159" lon="13.5099410">
        <ele>2033.66</ele>
        <time>2021-10-23T08:33:38Z</time>
      </trkpt>
      <trkpt lat="46.3676761" lon="13.5097924">
        <ele>2035.41</ele>
        <time>2021-10-23T08:34:01Z</time>
      </trkpt>
      <trkpt lat="46.3678497" lon="13.5097114">
        <ele>2035.51</ele>
        <time>2021-10-23T08:34:55Z</time>
      </trkpt>
      <trkpt lat="46.3680174" lon="13.5095930">
        <ele>2030.11</ele>
        <time>2021-10-23T08:35:57Z</time>
      </trkpt>
      <trkpt lat="46.3682085" lon="13.5095683">
        <ele>2033.66</ele>
        <time>2021-10-23T08:36:36Z</time>
      </trkpt>
      <trkpt lat="46.3682471" lon="13.5093070">
        <ele>2026.85</ele>
        <time>2021-10-23T08:38:10Z</time>
      </trkpt>
      <trkpt lat="46.3684152" lon="13.5091021">
        <ele>2023.87</ele>
        <time>2021-10-23T08:39:06Z</time>
      </trkpt>
      <trkpt lat="46.3686088" lon="13.5090568">
        <ele>2001.67</ele>
        <time>2021-10-23T08:39:54Z</time>
      </trkpt>
      <trkpt lat="46.3687833" lon="13.5089721">
        <ele>2008.07</ele>
        <time>2021-10-23T08:40:12Z</time>
      </trkpt>
      <trkpt lat="46.3688990" lon="13.5087634">
        <ele>2015.04</ele>
        <time>2021-10-23T08:40:27Z</time>
      </trkpt>
      <trkpt lat="46.3688445" lon="13.5090157">
        <ele>2015.06</ele>
        <time>2021-10-23T08:42:13Z</time>
      </trkpt>
      <trkpt lat="46.3690080" lon="13.5088948">
        <ele>2015.69</ele>
        <time>2021-10-23T08:42:29Z</time>
      </trkpt>
      <trkpt lat="46.3691934" lon="13.5089099">
        <ele>2010.04</ele>
        <time>2021-10-23T08:42:55Z</time>
      </trkpt>
      <trkpt lat="46.3693582" lon="13.5090235">
        <ele>2011.17</ele>
        <time>2021-10-23T08:43:13Z</time>
      </trkpt>
      <trkpt lat="46.3695192" lon="13.5091511">
        <ele>2005.35</ele>
        <time>2021-10-23T08:43:44Z</time>
      </trkpt>
      <trkpt lat="46.3696340" lon="13.5093703">
        <ele>2005.21</ele>
        <time>2021-10-23T08:44:04Z</time>
      </trkpt>
      <trkpt lat="46.3696449" lon="13.5096342">
        <ele>2010.20</ele>
        <time>2021-10-23T08:44:27Z</time>
      </trkpt>
      <trkpt lat="46.3696043" lon="13.5098980">
        <ele>2013.88</ele>
        <time>2021-10-23T08:44:48Z</time>
      </trkpt>
      <trkpt lat="46.3697481" lon="13.5100858">
        <ele>2006.06</ele>
        <time>2021-10-23T08:45:14Z</time>
      </trkpt>
      <trkpt lat="46.3696779" lon="13.5103446">
        <ele>2000.95</ele>
        <time>2021-10-23T08:45:44Z</time>
      </trkpt>
      <trkpt lat="46.3697210" lon="13.5105996">
        <ele>1998.53</ele>
        <time>2021-10-23T08:46:08Z</time>
      </trkpt>
      <trkpt lat="46.3697207" lon="13.5108603">
        <ele>1998.15</ele>
        <time>2021-10-23T08:46:24Z</time>
      </trkpt>
      <trkpt lat="46.3697281" lon="13.5111313">
        <ele>1997.60</ele>
        <time>2021-10-23T08:46:44Z</time>
      </trkpt>
      <trkpt lat="46.3697627" lon="13.5113879">
        <ele>2009.22</ele>
        <time>2021-10-23T08:47:06Z</time>
      </trkpt>
      <trkpt lat="46.3699152" lon="13.5115440">
        <ele>2000.10</ele>
        <time>2021-10-23T08:48:16Z</time>
      </trkpt>
      <trkpt lat="46.3700573" lon="13.5117787">
        <ele>2001.05</ele>
        <time>2021-10-23T08:48:39Z</time>
      </trkpt>
      <trkpt lat="46.3701727" lon="13.5119943">
        <ele>1992.73</ele>
        <time>2021-10-23T08:49:33Z</time>
      </trkpt>
      <trkpt lat="46.3703432" lon="13.5121059">
        <ele>1991.44</ele>
        <time>2021-10-23T08:49:54Z</time>
      </trkpt>
      <trkpt lat="46.3705292" lon="13.5120621">
        <ele>1994.90</ele>
        <time>2021-10-23T08:50:17Z</time>
      </trkpt>
      <trkpt lat="46.3707070" lon="13.5121272">
        <ele>2001.52</ele>
        <time>2021-10-23T08:50:44Z</time>
      </trkpt>
      <trkpt lat="46.3708950" lon="13.5121947">
        <ele>1996.44</ele>
        <time>2021-10-23T08:51:09Z</time>
      </trkpt>
      <trkpt lat="46.3710992" lon="13.5122101">
        <ele>1999.80</ele>
        <time>2021-10-23T08:52:03Z</time>
      </trkpt>
      <trkpt lat="46.3712971" lon="13.5122239">
        <ele>1999.03</ele>
        <time>2021-10-23T08:52:17Z</time>
      </trkpt>
      <trkpt lat="46.3712475" lon="13.5124763">
        <ele>2006.52</ele>
        <time>2021-10-23T08:52:42Z</time>
      </trkpt>
      <trkpt lat="46.3712553" lon="13.5127585">
        <ele>2006.02</ele>
        <time>2021-10-23T08:53:10Z</time>
      </trkpt>
      <trkpt lat="46.3712174" lon="13.5130148">
        <ele>2015.30</ele>
        <time>2021-10-23T08:53:38Z</time>
      </trkpt>
      <trkpt lat="46.3711975" lon="13.5133592">
        <ele>2022.43</ele>
        <time>2021-10-23T08:54:18Z</time>
      </trkpt>
      <trkpt lat="46.3712269" lon="13.5136213">
        <ele>2028.12</ele>
        <time>2021-10-23T08:54:51Z</time>
      </trkpt>
      <trkpt lat="46.3712162" lon="13.5138894">
        <ele>2027.27</ele>
        <time>2021-10-23T08:55:13Z</time>
      </trkpt>
      <trkpt lat="46.3712568" lon="13.5141640">
        <ele>2031.13</ele>
        <time>2021-10-23T08:56:19Z</time>
      </trkpt>
      <trkpt lat="46.3712870" lon="13.5144395">
        <ele>2028.93</ele>
        <time>2021-10-23T08:56:32Z</time>
      </trkpt>
      <trkpt lat="46.3713612" lon="13.5147302">
        <ele>2027.16</ele>
        <time>2021-10-23T08:56:51Z</time>
      </trkpt>
      <trkpt lat="46.3711883" lon="13.5148209">
        <ele>2025.99</ele>
        <time>2021-10-23T08:57:13Z</time>
      </trkpt>
      <trkpt lat="46.3712345" lon="13.5150866">
        <ele>2024.35</ele>
        <time>2021-10-23T08:57:39Z</time>
      </trkpt>
      <trkpt lat="46.3712417" lon="13.5148257">
        <ele>1990.13</ele>
        <time>2021-10-23T08:58:08Z</time>
      </trkpt>
      <trkpt lat="46.3712461" lon="13.5151402">
        <ele>1982.34</ele>
        <time>2021-10-23T08:59:11Z</time>
      </trkpt>
      <trkpt lat="46.3713684" lon="13.5153546">
        <ele>1983.45</ele>
        <time>2021-10-23T08:59:46Z</time>
      </trkpt>
      <trkpt lat="46.3715527" lon="13.5153560">
        <ele>1989.69</ele>
        <time>2021-10-23T09:00:06Z</time>
      </trkpt>
      <trkpt lat="46.3717309" lon="13.5153048">
        <ele>1997.01</ele>
        <time>2021-10-23T09:00:28Z</time>
      </trkpt>
      <trkpt lat="46.3718943" lon="13.5154320">
        <ele>2006.24</ele>
        <time>2021-10-23T09:00:53Z</time>
      </trkpt>
      <trkpt lat="46.3720850" lon="13.5154809">
        <ele>2004.25</ele>
        <time>2021-10-23T09:01:24Z</time>
      </trkpt>
      <trkpt lat="46.3722411" lon="13.5156326">
        <ele>2007.44</ele>
        <time>2021-10-23T09:01:42Z</time>
      </trkpt>
      <trkpt lat="46.3723836" lon="13.5157936">
        <ele>2015.92</ele>
        <time>2021-10-23T09:03:16Z</time>
      </trkpt>
      <trkpt lat="46.3725568" lon="13.5158969">
        <ele>2025.90</ele>
        <time>2021-10-23T09:03:58Z</time>
      </trkpt>
      <trkpt lat="46.3726747" lon="13.5160989">
        <ele>2034.87</ele>
        <time>2021-10-23T09:04:44Z</time>
      </trkpt>
      <trkpt lat="46.3728480" lon="13.5161747">
        <ele>2040.28</ele>
        <time>2021-10-23T09:09:13Z</time>
      </trkpt>
      <trkpt lat="46.3730124" lon="13.5162952">
        <ele>2047.49</ele>
        <time>2021-10-23T09:09:39Z</time>
      </trkpt>
      <trkpt lat="46.3731880" lon="13.5163583">
        <ele>2048.17</ele>
        <time>2021-10-23T09:10:02Z</time>
      </trkpt>
      <trkpt lat="46.3733526" lon="13.5164649">
        <ele>2053.26</ele>
        <time>2021-10-23T09:10:45Z</time>
      </trkpt>
      <trkpt lat="46.3735210" lon="13.5165675">
        <ele>2059.37</ele>
        <time>2021-10-23T09:11:12Z</time>
      </trkpt>
      <trkpt lat="46.3736617" lon="13.5167375">
        <ele>2069.76</ele>
        <time>2021-10-23T09:11:53Z</time>
      </trkpt>
      <trkpt lat="46.3738304" lon="13.5168282">
        <ele>2074.40</ele>
        <time>2021-10-23T09:12:45Z</time>
      </trkpt>
      <trkpt lat="46.3740122" lon="13.5167626">
        <ele>2080.38</ele>
        <time>2021-10-23T09:13:20Z</time>
      </trkpt>
      <trkpt lat="46.3741808" lon="13.5166640">
        <ele>2087.89</ele>
        <time>2021-10-23T09:13:55Z</time>
      </trkpt>
      <trkpt lat="46.3743010" lon="13.5168652">
        <ele>2090.76</ele>
        <time>2021-10-23T09:14:46Z</time>
      </trkpt>
      <trkpt lat="46.3743431" lon="13.5171195">
        <ele>2096.72</ele>
        <time>2021-10-23T09:15:48Z</time>
      </trkpt>
      <trkpt lat="46.3744664" lon="13.5173176">
        <ele>2108.80</ele>
        <time>2021-10-23T09:16:28Z</time>
      </trkpt>
      <trkpt lat="46.3746042" lon="13.5174988">
        <ele>2120.66</ele>
        <time>2021-10-23T09:17:12Z</time>
      </trkpt>
      <trkpt lat="46.3747828" lon="13.5174607">
        <ele>2128.38</ele>
        <time>2021-10-23T09:18:12Z</time>
      </trkpt>
      <trkpt lat="46.3749241" lon="13.5176487">
        <ele>2136.58</ele>
        <time>2021-10-23T09:19:03Z</time>
      </trkpt>
      <trkpt lat="46.3750999" lon="13.5177230">
        <ele>2138.86</ele>
        <time>2021-10-23T09:19:42Z</time>
      </trkpt>
      <trkpt lat="46.3752435" lon="13.5175539">
        <ele>2141.08</ele>
        <time>2021-10-23T09:20:19Z</time>
      </trkpt>
      <trkpt lat="46.3753579" lon="13.5173383">
        <ele>2143.00</ele>
        <time>2021-10-23T09:20:43Z</time>
      </trkpt>
      <trkpt lat="46.3752390" lon="13.5175386">
        <ele>2148.70</ele>
        <time>2021-10-23T09:22:21Z</time>
      </trkpt>
      <trkpt lat="46.3754186" lon="13.5175941">
        <ele>2147.83</ele>
        <time>2021-10-23T09:22:52Z</time>
      </trkpt>
      <trkpt lat="46.3756056" lon="13.5175783">
        <ele>2152.89</ele>
        <time>2021-10-23T09:24:06Z</time>
      </trkpt>
      <trkpt lat="46.3757742" lon="13.5176801">
        <ele>2159.51</ele>
        <time>2021-10-23T09:24:31Z</time>
      </trkpt>
      <trkpt lat="46.3759555" lon="13.5177290">
        <ele>2165.98</ele>
        <time>2021-10-23T09:25:01Z</time>
      </trkpt>
      <trkpt lat="46.3761260" lon="13.5178160">
        <ele>2169.08</ele>
        <time>2021-10-23T09:25:37Z</time>
      </trkpt>
      <trkpt lat="46.3763039" lon="13.5177346">
        <ele>2165.73</ele>
        <time>2021-10-23T09:26:16Z</time>
      </trkpt>
      <trkpt lat="46.3764585" lon="13.5178778">
        <ele>2173.60</ele>
        <time>2021-10-23T09:26:50Z</time>
      </trkpt>
      <trkpt lat="46.3766399" lon="13.5178969">
        <ele>2176.45</ele>
        <time>2021-10-23T09:27:50Z</time>
      </trkpt>
      <trkpt lat="46.3768282" lon="13.5179118">
        <ele>2195.80</ele>
        <time>2021-10-23T09:29:27Z</time>
      </trkpt>
      <trkpt lat="46.3768088" lon="13.5176488">
        <ele>2201.56</ele>
        <time>2021-10-23T09:29:52Z</time>
      </trkpt>
      <trkpt lat="46.3766845" lon="13.5174588">
        <ele>2203.48</ele>
        <time>2021-10-23T09:30:23Z</time>
      </trkpt>
      <trkpt lat="46.3768471" lon="13.5175706">
        <ele>2211.33</ele>
        <time>2021-10-23T09:30:55Z</time>
      </trkpt>
      <trkpt lat="46.3767283" lon="13.5173713">
        <ele>2218.58</ele>
        <time>2021-10-23T09:31:37Z</time>
      </trkpt>
      <trkpt lat="46.3768161" lon="13.5171361">
        <ele>2211.49</ele>
        <time>2021-10-23T09:32:25Z</time>
      </trkpt>
      <trkpt lat="46.3766653" lon="13.5169878">
        <ele>2251.71</ele>
        <time>2021-10-23T09:37:43Z</time>
      </trkpt>
      <trkpt lat="46.3765236" lon="13.5168257">
        <ele>2263.73</ele>
        <time>2021-10-23T09:38:10Z</time>
      </trkpt>
      <trkpt lat="46.3765276" lon="13.5165626">
        <ele>2269.51</ele>
        <time>2021-10-23T09:45:34Z</time>
      </trkpt>
      <trkpt lat="46.3763917" lon="13.5163896">
        <ele>2283.39</ele>
        <time>2021-10-23T09:46:54Z</time>
      </trkpt>
      <trkpt lat="46.3762784" lon="13.5161812">
        <ele>2294.81</ele>
        <time>2021-10-23T09:48:00Z</time>
      </trkpt>
      <trkpt lat="46.3761029" lon="13.5161086">
        <ele>2296.80</ele>
        <time>2021-10-23T09:48:36Z</time>
      </trkpt>
      <trkpt lat="46.3762159" lon="13.5159013">
        <ele>2318.29</ele>
        <time>2021-10-23T09:51:15Z</time>
      </trkpt>
      <trkpt lat="46.3763882" lon="13.5158162">
        <ele>2325.92</ele>
        <time>2021-10-23T09:51:55Z</time>
      </trkpt>
      <trkpt lat="46.3765523" lon="13.5156475">
        <ele>2335.37</ele>
        <time>2021-10-23T09:53:36Z</time>
      </trkpt>
      <trkpt lat="46.3765573" lon="13.5155869">
        <ele>2333.04</ele>
        <time>2021-10-23T09:57:02Z</time>
      </trkpt>
    </trkseg>
  </trk>
</gpx>
